Time;durP1;ratioP1;P1;durP2;ratioP2;P2;SDS_P1;SDS_P2;PMS_P1;PMS_P2;Temp;Humidity;BMP_temperature;BMP_pressure;BME280_temperature;BME280_humidity;BME280_pressure;Samples;Min_cycle;Max_cycle;Signal;HPM_P1;HPM_P2
2024/01/31 00:01:16;;;;;;;14.20;7.70;;;;;;;-0.42;83.84;62863.75;5052254;28;20200;-60
2024/01/31 00:03:41;;;;;;;15.47;8.17;;;;;;;-0.33;82.26;62874.03;5069888;28;20205;-60
2024/01/31 00:06:07;;;;;;;16.63;7.47;;;;;;;-0.30;81.05;62879.75;5069982;28;20213;-58
2024/01/31 00:08:33;;;;;;;15.03;7.23;;;;;;;-0.54;79.60;62856.25;5070088;28;20223;-58
2024/01/31 00:10:58;;;;;;;17.47;8.50;;;;;;;-0.77;81.25;62828.91;5069859;28;20189;-55
2024/01/31 00:13:25;;;;;;;20.57;7.07;;;;;;;-0.91;83.46;62813.78;5070070;28;20213;-62
2024/01/31 00:15:51;;;;;;;16.07;7.77;;;;;;;-0.98;83.97;62806.75;5069876;28;20185;-60
2024/01/31 00:18:16;;;;;;;15.30;7.90;;;;;;;-0.96;85.91;62811.38;5070653;28;20219;-58
2024/01/31 00:20:42;;;;;;;18.47;8.60;;;;;;;-0.97;87.14;62807.28;5073675;28;20181;-56
2024/01/31 00:23:08;;;;;;;15.83;9.13;;;;;;;-0.98;89.71;62808.66;5073208;28;20275;-57
2024/01/31 00:25:33;;;;;;;16.47;8.20;;;;;;;-0.94;88.80;62810.53;5073233;28;20185;-56
2024/01/31 00:27:59;;;;;;;14.90;8.57;;;;;;;-0.95;89.97;62809.44;5073404;28;20231;-56
2024/01/31 00:30:24;;;;;;;19.13;10.23;;;;;;;-0.88;90.06;62817.00;5073306;28;20177;-57
2024/01/31 00:32:50;;;;;;;16.27;8.77;;;;;;;-1.60;96.94;62737.25;5055185;28;20595;-54
2024/01/31 00:35:15;;;;;;;22.00;8.93;;;;;;;-1.32;95.59;62766.97;5055088;28;20184;-54
2024/01/31 00:37:41;;;;;;;18.17;9.43;;;;;;;-1.16;95.17;62781.78;5073144;28;20216;-54
2024/01/31 00:40:09;;;;;;;19.93;8.70;;;;;;;-1.01;93.30;62803.50;5073109;28;20286;-57
2024/01/31 00:42:38;;;;;;;16.87;9.37;;;;;;;-0.95;91.66;62809.97;5072822;28;20246;-58
2024/01/31 00:45:07;;;;;;;17.60;9.60;;;;;;;-0.78;91.27;62827.28;5072837;28;20180;-58
2024/01/31 00:47:33;;;;;;;19.17;9.67;;;;;;;-0.71;90.55;62834.84;5072656;28;20224;-56
2024/01/31 00:49:58;;;;;;;19.17;9.53;;;;;;;-0.60;88.38;62844.28;5072756;28;20195;-56
2024/01/31 00:52:25;;;;;;;22.83;10.60;;;;;;;-0.70;88.69;62836.47;5073227;28;20640;-58
2024/01/31 00:54:50;;;;;;;17.50;9.53;;;;;;;-0.68;88.33;62836.16;5072758;28;20185;-57
2024/01/31 00:57:17;;;;;;;15.70;8.83;;;;;;;-0.87;88.48;62818.09;5073027;28;20216;-62
2024/01/31 00:59:43;;;;;;;19.87;9.20;;;;;;;-1.01;89.60;62803.50;5054692;28;20658;-58
2024/01/31 01:02:10;;;;;;;21.03;9.83;;;;;;;-1.25;91.12;62774.53;5072698;28;20204;-60
2024/01/31 01:04:35;;;;;;;19.13;8.00;;;;;;;-1.32;92.63;62770.00;5072634;28;20239;-57
2024/01/31 01:07:01;;;;;;;17.33;9.20;;;;;;;-1.19;90.56;62784.03;5072497;28;20224;-57
2024/01/31 01:09:27;;;;;;;16.87;8.77;;;;;;;-1.05;89.85;62801.09;5072687;28;20184;-58
2024/01/31 01:11:52;;;;;;;19.17;9.20;;;;;;;-0.95;88.90;62806.97;5054334;28;20771;-58
2024/01/31 01:14:18;;;;;;;13.07;7.80;;;;;;;-0.96;88.06;62810.81;5072614;28;20278;-59
2024/01/31 01:16:44;;;;;;;19.20;8.17;;;;;;;-1.11;89.82;62795.16;5072474;28;20294;-57
2024/01/31 01:19:09;;;;;;;16.47;7.77;;;;;;;-1.13;90.50;62790.50;5054492;28;20567;-56
2024/01/31 01:21:36;;;;;;;14.00;7.37;;;;;;;-1.03;87.62;62798.31;5072321;28;20206;-57
2024/01/31 01:24:03;;;;;;;16.80;7.60;;;;;;;-1.23;88.53;62779.19;5072324;28;20177;-59
2024/01/31 01:26:28;;;;;;;16.70;8.03;;;;;;;-1.38;89.13;62760.50;5072246;28;20307;-57
2024/01/31 01:28:54;;;;;;;14.80;7.77;;;;;;;-1.37;89.23;62761.56;5072033;28;20204;-59
2024/01/31 01:31:20;;;;;;;15.00;7.60;;;;;;;-1.25;87.94;62777.03;5071403;28;20212;-58
2024/01/31 01:33:46;;;;;;;17.43;7.93;;;;;;;-1.25;88.49;62780.00;5072122;28;20214;-59
2024/01/31 01:36:30;;;;;;;15.17;7.53;;;;;;;-1.14;88.31;62791.38;5054187;28;20201;-60
2024/01/31 01:38:55;;;;;;;14.40;7.67;;;;;;;-1.11;88.26;62794.63;5054045;28;20207;-54
2024/01/31 01:41:21;;;;;;;13.50;7.40;;;;;;;-1.18;88.14;62785.13;5071883;28;20580;-57
2024/01/31 01:43:48;;;;;;;16.53;8.17;;;;;;;-1.30;89.63;62772.16;5071871;28;20619;-57
2024/01/31 01:46:20;;;;;;;15.90;7.83;;;;;;;-1.12;88.50;62791.06;5072102;28;20216;-56
2024/01/31 01:48:47;;;;;;;11.40;6.60;;;;;;;-0.96;86.57;62808.34;5070589;28;20686;-57
2024/01/31 01:51:23;;;;;;;14.50;8.00;;;;;;;-1.03;86.08;62801.31;5071835;28;20189;-56
2024/01/31 01:53:49;;;;;;;14.30;8.03;;;;;;;-1.18;85.87;62785.13;5054027;28;20278;-58
2024/01/31 01:56:16;;;;;;;18.50;8.00;;;;;;;-1.31;85.94;62770.50;5071778;28;20197;-55
2024/01/31 01:58:42;;;;;;;13.37;7.40;;;;;;;-1.32;85.27;62770.00;5071784;28;20295;-56
2024/01/31 02:01:09;;;;;;;16.60;7.33;;;;;;;-1.33;84.16;62768.91;5071935;28;20274;-56
2024/01/31 02:03:35;;;;;;;11.40;5.80;;;;;;;-1.47;81.99;62753.22;5071506;28;20657;-58
2024/01/31 02:06:01;;;;;;;13.67;5.83;;;;;;;-1.58;83.98;62739.41;5071723;28;20213;-55
2024/01/31 02:08:27;;;;;;;10.40;5.33;;;;;;;-1.68;82.22;62730.53;5071510;28;20212;-56
2024/01/31 02:10:53;;;;;;;12.00;6.77;;;;;;;-1.53;84.26;62747.28;5053631;28;20219;-59
2024/01/31 02:13:19;;;;;;;10.20;6.43;;;;;;;-1.38;84.95;62761.03;5071335;28;20239;-57
2024/01/31 02:15:55;;;;;;;15.40;6.90;;;;;;;-1.73;90.63;62728.69;5071374;28;20204;-59
2024/01/31 02:18:28;;;;;;;13.30;6.77;;;;;;;-1.81;90.34;62717.03;5071346;28;20249;-55
2024/01/31 02:20:53;;;;;;;13.13;6.37;;;;;;;-1.61;90.09;62735.63;5071803;28;20185;-57
2024/01/31 02:23:19;;;;;;;11.20;6.47;;;;;;;-1.53;89.00;62746.75;5071131;28;20262;-55
2024/01/31 02:25:45;;;;;;;12.43;6.23;;;;;;;-1.41;83.86;62759.69;5071170;28;20185;-55
2024/01/31 02:28:11;;;;;;;15.50;4.57;;;;;;;-1.68;80.76;62731.09;5071132;28;20205;-54
2024/01/31 02:30:37;;;;;;;12.67;5.00;;;;;;;-1.99;80.97;62697.59;5053164;28;20190;-56
2024/01/31 02:33:03;;;;;;;11.57;4.47;;;;;;;-2.06;82.80;62690.56;5053192;28;20212;-55
2024/01/31 02:35:32;;;;;;;9.57;5.20;;;;;;;-2.06;81.59;62690.56;5071186;28;20192;-58
2024/01/31 02:37:58;;;;;;;8.57;3.83;;;;;;;-2.22;82.22;62673.28;5071107;28;20296;-57
2024/01/31 02:40:23;;;;;;;10.93;5.20;;;;;;;-2.27;82.45;62667.91;5071202;28;20215;-57
2024/01/31 02:42:49;;;;;;;8.23;3.50;;;;;;;-2.48;82.17;62644.69;5069617;28;20733;-58
2024/01/31 02:45:15;;;;;;;6.63;3.57;;;;;;;-2.66;81.19;62628.25;5071072;28;20188;-59
2024/01/31 02:47:41;;;;;;;8.03;3.57;;;;;;;-3.11;83.06;62577.78;5053025;28;20220;-56
2024/01/31 02:50:07;;;;;;;6.33;3.80;;;;;;;-2.87;83.10;62603.16;5070985;28;20207;-57
2024/01/31 02:52:33;;;;;;;7.40;3.60;;;;;;;-2.76;82.46;62612.53;5071044;28;20216;-57
2024/01/31 02:54:58;;;;;;;6.53;3.27;;;;;;;-2.69;81.88;62622.56;5070980;28;20252;-57
2024/01/31 02:57:25;;;;;;;6.33;3.40;;;;;;;-2.78;82.39;62613.41;5070675;28;20655;-58
2024/01/31 02:59:51;;;;;;;6.67;3.90;;;;;;;-2.64;82.01;62630.41;5052918;28;20280;-57
2024/01/31 03:02:17;;;;;;;5.37;3.30;;;;;;;-2.70;82.30;62624.50;5070535;28;20209;-57
2024/01/31 03:04:43;;;;;;;7.13;3.20;;;;;;;-2.58;82.89;62634.44;5052814;28;20259;-57
2024/01/31 03:07:10;;;;;;;7.80;4.13;;;;;;;-2.52;81.58;62642.84;5070568;28;20278;-56
2024/01/31 03:09:36;;;;;;;6.60;3.63;;;;;;;-2.95;81.78;62595.03;5052860;28;20279;-57
2024/01/31 03:12:04;;;;;;;7.13;3.43;;;;;;;-3.13;84.05;62575.09;5069583;28;20238;-59
2024/01/31 03:14:31;;;;;;;4.90;3.17;;;;;;;-3.03;83.90;62583.44;5069812;28;20187;-57
2024/01/31 03:16:56;;;;;;;5.63;3.23;;;;;;;-2.75;83.25;62616.63;5070919;28;20290;-58
2024/01/31 03:19:22;;;;;;;5.80;3.37;;;;;;;-2.61;81.96;62634.19;5052693;28;20295;-57
2024/01/31 03:21:48;;;;;;;5.87;3.37;;;;;;;-2.49;81.63;62644.16;5052590;28;20193;-58
2024/01/31 03:24:15;;;;;;;6.53;2.53;;;;;;;-2.46;80.95;62644.91;5070739;28;20194;-56
2024/01/31 03:26:41;;;;;;;4.23;2.43;;;;;;;-2.42;79.45;62653.66;5070323;28;20241;-58
2024/01/31 03:29:06;;;;;;;4.33;2.60;;;;;;;-2.37;79.99;62656.56;5070500;28;20663;-58
2024/01/31 03:31:32;;;;;;;3.97;2.50;;;;;;;-2.31;78.78;62663.03;5052562;28;20200;-57
2024/01/31 03:33:58;;;;;;;7.43;2.83;;;;;;;-2.27;77.94;62667.91;5070458;28;20653;-62
2024/01/31 03:36:23;;;;;;;9.50;3.10;;;;;;;-2.30;77.42;62664.66;5051627;28;20188;-57
2024/01/31 03:38:49;;;;;;;5.33;2.77;;;;;;;-2.40;77.92;62656.31;5070136;28;20225;-57
2024/01/31 03:41:14;;;;;;;5.50;2.67;;;;;;;-2.30;77.56;62664.66;5052452;28;20660;-58
2024/01/31 03:43:40;;;;;;;5.90;3.30;;;;;;;-2.48;78.36;62644.69;5070239;28;20230;-57
2024/01/31 03:46:06;;;;;;;4.70;3.00;;;;;;;-2.52;79.33;62640.38;5070006;28;20635;-57
2024/01/31 03:48:32;;;;;;;7.60;3.03;;;;;;;-2.41;78.42;62652.25;5070163;28;20211;-57
2024/01/31 03:50:58;;;;;;;5.43;3.47;;;;;;;-2.31;78.00;62663.59;5070359;28;20662;-57
2024/01/31 03:53:25;;;;;;;5.87;3.00;;;;;;;-2.23;78.40;62669.75;5071046;28;20222;-58
2024/01/31 03:55:51;;;;;;;7.53;3.10;;;;;;;-2.18;78.56;62677.59;5073765;28;20199;-58
2024/01/31 03:58:17;;;;;;;7.47;3.50;;;;;;;-2.06;77.34;62687.56;5055650;28;20201;-57
2024/01/31 04:00:44;;;;;;;8.17;3.13;;;;;;;-2.04;77.53;62690.25;5055472;28;20208;-56
2024/01/31 04:03:10;;;;;;;10.00;3.80;;;;;;;-2.04;77.61;62692.72;5073537;28;20201;-57
2024/01/31 04:05:36;;;;;;;8.53;4.20;;;;;;;-2.23;79.74;62669.75;5073557;28;20202;-57
2024/01/31 04:08:02;;;;;;;11.17;4.00;;;;;;;-2.27;79.36;62667.91;5055561;28;20216;-59
2024/01/31 04:10:27;;;;;;;11.23;4.97;;;;;;;-2.15;79.55;62680.31;5073474;28;20630;-56
2024/01/31 04:12:54;;;;;;;12.10;4.73;;;;;;;-2.28;80.91;62669.28;5073370;28;20323;-56
2024/01/31 04:15:19;;;;;;;8.80;4.67;;;;;;;-2.45;80.81;62650.94;5073276;28;20241;-54
2024/01/31 04:17:45;;;;;;;7.27;4.53;;;;;;;-2.81;82.99;62614.56;5055657;28;20749;-55
2024/01/31 04:20:11;;;;;;;10.33;5.70;;;;;;;-3.09;86.39;62581.88;5073555;28;20251;-55
2024/01/31 04:22:40;;;;;;;11.37;5.70;;;;;;;-2.97;88.15;62592.88;5073555;28;20250;-55
2024/01/31 04:25:06;;;;;;;12.30;5.30;;;;;;;-2.79;86.69;62609.84;5073290;28;20716;-56
2024/01/31 04:27:32;;;;;;;11.50;5.67;;;;;;;-2.83;86.89;62609.94;5073134;28;20220;-58
2024/01/31 04:29:58;;;;;;;10.97;5.70;;;;;;;-2.86;86.16;62604.75;5073402;28;20568;-57
2024/01/31 04:32:24;;;;;;;8.93;4.33;;;;;;;-3.04;85.65;62587.81;5073318;28;20212;-57
2024/01/31 04:34:50;;;;;;;8.47;4.50;;;;;;;-2.93;83.66;62596.69;5073271;28;20192;-56
2024/01/31 04:37:16;;;;;;;7.93;3.60;;;;;;;-3.11;82.76;62580.25;5073346;28;20269;-56
2024/01/31 04:39:42;;;;;;;7.30;3.60;;;;;;;-3.10;83.16;62575.88;5055283;28;20194;-59
2024/01/31 04:42:08;;;;;;;5.20;3.23;;;;;;;-2.98;82.80;62591.28;5055444;28;20237;-55
2024/01/31 04:44:34;;;;;;;5.77;3.37;;;;;;;-3.07;82.95;62584.56;5072894;28;20225;-57
2024/01/31 04:47:00;;;;;;;5.50;3.07;;;;;;;-3.48;83.38;62540.34;5072598;28;20228;-57
2024/01/31 04:49:26;;;;;;;4.73;2.83;;;;;;;-3.33;85.01;62554.06;5054897;28;20204;-57
2024/01/31 04:51:51;;;;;;;11.40;4.27;;;;;;;-3.18;84.44;62572.72;5073210;28;20664;-58
2024/01/31 04:54:17;;;;;;;6.73;2.70;;;;;;;-3.01;83.39;62590.50;5072845;28;20694;-58
2024/01/31 04:56:43;;;;;;;5.50;2.67;;;;;;;-3.06;82.79;62582.66;5064113;22;20329;-57
2024/01/31 04:59:08;;;;;;;5.77;3.10;;;;;;;-2.94;82.38;62596.13;5072866;28;20222;-54
2024/01/31 05:01:34;;;;;;;5.90;3.17;;;;;;;-2.89;83.16;62601.00;5072404;28;20185;-55
2024/01/31 05:04:00;;;;;;;6.13;3.70;;;;;;;-2.80;84.66;62610.69;5072465;28;20227;-54
2024/01/31 05:06:26;;;;;;;9.07;3.63;;;;;;;-2.78;84.17;62612.84;5036936;28;20307;-57
2024/01/31 05:08:51;;;;;;;7.07;3.70;;;;;;;-2.59;84.08;62633.88;5072340;28;20707;-65
2024/01/31 05:11:17;;;;;;;9.57;3.80;;;;;;;-2.44;82.62;62649.53;5054589;28;20580;-56
2024/01/31 05:13:43;;;;;;;9.90;4.40;;;;;;;-2.56;82.86;62636.59;5054428;28;20751;-55
2024/01/31 05:16:10;;;;;;;12.00;4.50;;;;;;;-2.71;84.39;62618.47;5072431;28;20203;-59
2024/01/31 05:18:36;;;;;;;10.67;5.43;;;;;;;-2.78;87.51;62615.31;5072487;28;20212;-59
2024/01/31 05:21:02;;;;;;;13.37;4.83;;;;;;;-2.69;85.46;62620.63;5072386;28;20222;-58
2024/01/31 05:23:28;;;;;;;11.03;4.97;;;;;;;-2.68;84.75;62621.19;5072203;28;20213;-58
2024/01/31 05:25:54;;;;;;;14.17;5.53;;;;;;;-2.63;84.27;62629.03;5072085;28;20676;-58
2024/01/31 05:28:20;;;;;;;11.77;5.13;;;;;;;-2.61;85.12;62631.19;5072207;28;20211;-57
2024/01/31 05:30:46;;;;;;;12.97;5.90;;;;;;;-2.53;83.97;62641.75;5055476;23;20226;-58
2024/01/31 05:33:12;;;;;;;10.60;5.83;;;;;;;-2.33;82.44;62658.97;5032234;28;20218;-61
2024/01/31 05:35:38;;;;;;;10.83;6.50;;;;;;;-2.53;83.67;62639.28;5032844;28;20200;-59
2024/01/31 05:38:04;;;;;;;10.83;6.53;;;;;;;-2.29;82.64;62662.72;5032330;28;20209;-59
2024/01/31 05:40:31;;;;;;;14.53;6.27;;;;;;;-2.37;84.34;62657.09;5032575;28;20288;-58
2024/01/31 05:42:58;;;;;;;11.70;6.37;;;;;;;-2.33;85.12;62658.97;5030742;28;20202;-61
2024/01/31 05:45:24;;;;;;;15.53;6.63;;;;;;;-2.28;84.77;62669.28;5032387;28;20194;-56
2024/01/31 05:47:50;;;;;;;12.80;6.57;;;;;;;-2.33;84.56;62661.44;5031871;28;20268;-58
2024/01/31 05:50:16;;;;;;;15.37;6.10;;;;;;;-2.35;85.27;62661.19;5031963;28;20193;-59
2024/01/31 05:52:41;;;;;;;13.33;5.43;;;;;;;-2.39;81.84;62654.41;5014187;28;20698;-55
2024/01/31 05:55:07;;;;;;;12.53;5.37;;;;;;;-2.58;83.11;62634.44;5031995;28;20205;-55
2024/01/31 05:57:33;;;;;;;20.43;8.73;;;;;;;-3.62;89.48;62525.81;5030641;28;20211;-53
2024/01/31 05:59:59;;;;;;;9.23;4.07;;;;;;;-3.23;82.71;62566.78;5032050;28;20200;-55
2024/01/31 06:02:25;;;;;;;6.13;3.20;;;;;;;-3.13;80.61;62575.09;5030672;28;20213;-58
2024/01/31 06:04:50;;;;;;;4.90;3.20;;;;;;;-3.26;81.18;62561.06;5030615;28;20678;-60
2024/01/31 06:07:16;;;;;;;6.03;3.57;;;;;;;-3.33;80.61;62554.06;5031766;28;20328;-57
2024/01/31 06:09:42;;;;;;;6.57;3.83;;;;;;;-3.28;81.49;62561.38;5031814;28;20187;-56
2024/01/31 06:12:08;;;;;;;7.70;4.40;;;;;;;-3.12;81.54;62579.19;5031450;28;20268;-58
2024/01/31 06:14:37;;;;;;;21.83;11.33;;;;;;;-3.77;93.87;62504.16;5031813;28;20204;-59
2024/01/31 06:17:06;;;;;;;19.27;8.70;;;;;;;-3.32;90.84;62557.59;5045251;28;20248;-57
2024/01/31 06:19:31;;;;;;;10.30;5.03;;;;;;;-3.19;86.05;62571.63;5014396;28;20733;-59
2024/01/31 06:21:57;;;;;;;13.97;5.20;;;;;;;-3.11;84.50;62574.78;5030350;28;20212;-56
2024/01/31 06:24:23;;;;;;;14.23;6.97;;;;;;;-2.87;86.28;62606.13;5030169;28;20698;-58
2024/01/31 06:26:49;;;;;;;12.67;5.17;;;;;;;-2.93;83.31;62597.19;5031276;28;20664;-56
2024/01/31 06:29:18;;;;;;;11.00;4.77;;;;;;;-2.90;85.49;62602.38;5030245;28;20210;-58
2024/01/31 06:31:51;;;;;;;11.27;6.33;;;;;;;-2.81;87.58;62607.16;5029824;28;20190;-54
2024/01/31 06:34:25;;;;;;;26.73;9.73;;;;;;;-3.01;92.21;62588.56;5029956;28;20725;-61
2024/01/31 06:36:52;;;;;;;22.23;8.23;;;;;;;-2.79;91.10;62611.78;5031308;28;20277;-60
2024/01/31 06:39:18;;;;;;;20.73;8.83;;;;;;;-2.61;93.93;62626.28;5031301;28;20193;-60
2024/01/31 06:41:44;;;;;;;16.87;8.87;;;;;;;-2.49;91.26;62644.16;5029978;28;20186;-60
2024/01/31 06:44:10;;;;;;;21.10;8.87;;;;;;;-2.36;88.92;62655.72;5030085;28;20543;-59
2024/01/31 06:46:36;;;;;;;14.53;7.37;;;;;;;-2.18;84.90;62675.16;5030225;28;20221;-55
2024/01/31 06:49:01;;;;;;;19.30;8.63;;;;;;;-2.11;85.42;62682.72;5031202;28;20185;-57
2024/01/31 06:51:27;;;;;;;20.17;7.70;;;;;;;-1.92;85.60;62705.16;5031335;28;20193;-58
2024/01/31 06:53:52;;;;;;;16.97;7.43;;;;;;;-1.98;82.15;62698.69;5030961;28;20206;-57
2024/01/31 06:56:19;;;;;;;15.73;6.90;;;;;;;-2.37;82.11;62659.56;5029821;28;20267;-57
2024/01/31 06:58:46;;;;;;;12.10;7.33;;;;;;;-2.48;82.44;62645.22;5030894;28;20218;-58
2024/01/31 07:01:18;;;;;;;15.87;7.00;;;;;;;-2.56;83.67;62636.59;5031102;28;20682;-59
2024/01/31 07:03:45;;;;;;;18.17;7.93;;;;;;;-2.52;83.35;62643.38;5030961;28;20217;-59
2024/01/31 07:06:12;;;;;;;18.07;8.43;;;;;;;-2.43;82.54;62655.56;5030847;28;20278;-54
2024/01/31 07:08:39;;;;;;;14.20;7.30;;;;;;;-2.33;82.60;62660.88;5030678;28;20228;-57
2024/01/31 07:11:08;;;;;;;13.53;7.53;;;;;;;-2.52;84.22;62642.84;5030789;28;20660;-56
2024/01/31 07:13:40;;;;;;;11.73;6.10;;;;;;;-2.46;83.28;62647.38;5029493;28;20236;-60
2024/01/31 07:16:12;;;;;;;11.63;6.80;;;;;;;-2.35;83.55;62659.28;5031167;28;20221;-57
2024/01/31 07:18:42;;;;;;;11.83;7.07;;;;;;;-2.43;83.70;62650.63;5029493;28;20734;-61
2024/01/31 07:21:11;;;;;;;17.70;8.83;;;;;;;-2.00;86.81;62692.13;5031014;28;20201;-57
2024/01/31 07:23:37;;;;;;;21.47;10.17;;;;;;;-0.89;100.00;62815.94;5030537;28;20711;-55
2024/01/31 07:26:03;;;;;;;16.03;8.63;;;;;;;0.18;100.00;62931.16;5030428;28;20260;-56
2024/01/31 07:28:35;;;;;;;23.07;10.23;;;;;;;1.05;100.00;63022.34;5030600;28;20260;-57
2024/01/31 07:31:02;;;;;;;30.23;12.40;;;;;;;0.83;86.71;63001.56;5033123;28;20200;-56
2024/01/31 07:33:28;;;;;;;24.70;10.30;;;;;;;0.74;79.25;62991.25;5033136;28;20229;-58
2024/01/31 07:35:53;;;;;;;19.07;9.87;;;;;;;0.58;77.09;62973.94;5034660;28;20198;-58
2024/01/31 07:38:20;;;;;;;18.23;10.27;;;;;;;0.36;74.28;62947.63;5034372;28;20288;-57
2024/01/31 07:40:46;;;;;;;17.93;9.87;;;;;;;0.09;74.37;62920.88;5032853;28;20220;-56
2024/01/31 07:43:11;;;;;;;24.00;10.10;;;;;;;-0.40;77.42;62868.91;5034105;28;20210;-59
2024/01/31 07:45:37;;;;;;;19.17;9.87;;;;;;;-0.45;77.80;62865.44;5034243;28;20190;-63
2024/01/31 07:48:03;;;;;;;19.93;9.53;;;;;;;-0.57;78.59;62850.53;5033870;28;20220;-58
2024/01/31 07:50:28;;;;;;;17.60;9.17;;;;;;;-0.58;80.37;62849.44;5034485;28;20198;-58
2024/01/31 07:52:55;;;;;;;22.23;11.20;;;;;;;-0.29;81.21;62880.28;5033945;28;20244;-54
2024/01/31 07:55:20;;;;;;;20.73;11.03;;;;;;;-0.13;79.27;62897.59;5032682;28;20186;-58
2024/01/31 07:57:46;;;;;;;21.00;10.63;;;;;;;0.00;76.54;62909.22;5049072;28;20217;-58
2024/01/31 08:00:13;;;;;;;21.20;9.67;;;;;;;0.06;76.23;62918.19;5032682;28;20606;-58
2024/01/31 08:02:38;;;;;;;19.43;9.67;;;;;;;0.33;74.15;62944.91;5033767;28;20688;-58
2024/01/31 08:05:05;;;;;;;18.63;9.27;;;;;;;0.19;73.20;62929.22;5033780;28;20182;-57
2024/01/31 08:07:30;;;;;;;18.90;9.63;;;;;;;-0.06;73.83;62905.72;5032188;28;20287;-56
2024/01/31 08:09:56;;;;;;;25.13;10.53;;;;;;;0.14;74.42;62926.84;5033771;28;20197;-55
2024/01/31 08:12:22;;;;;;;20.70;10.40;;;;;;;0.56;74.05;62971.75;5015799;28;20685;-59
2024/01/31 08:14:48;;;;;;;20.20;10.07;;;;;;;0.54;73.60;62967.66;5033958;28;20228;-59
2024/01/31 08:17:14;;;;;;;17.63;10.03;;;;;;;0.90;69.50;63005.56;5032194;28;20218;-57
2024/01/31 08:19:40;;;;;;;18.83;10.33;;;;;;;0.99;68.89;63018.34;5033380;28;20198;-56
2024/01/31 08:22:06;;;;;;;21.13;8.90;;;;;;;1.15;69.54;63035.69;5033694;28;20222;-59
2024/01/31 08:24:31;;;;;;;21.37;10.13;;;;;;;1.38;68.50;63057.59;5032397;28;20220;-60
2024/01/31 08:26:57;;;;;;;22.93;10.90;;;;;;;2.11;69.24;63138.69;5077354;22;20293;-59
2024/01/31 08:29:22;;;;;;;15.17;9.30;;;;;;;2.05;63.23;63132.72;5073543;28;20197;-58
2024/01/31 08:31:48;;;;;;;25.33;10.43;;;;;;;2.16;65.15;63144.66;5073424;28;20238;-60
2024/01/31 08:34:14;;;;;;;31.10;14.73;;;;;;;2.40;62.71;63170.16;5072087;28;20189;-56
2024/01/31 08:36:40;;;;;;;25.33;14.73;;;;;;;2.26;64.29;63155.50;5073504;28;20666;-56
2024/01/31 08:39:08;;;;;;;36.53;15.63;;;;;;;2.40;63.54;63170.16;5073216;28;20185;-62
2024/01/31 08:41:44;;;;;;;31.00;15.10;;;;;;;1.80;66.88;63105.06;5073215;28;20189;-59
2024/01/31 08:44:09;;;;;;;30.43;15.13;;;;;;;1.86;65.93;63111.59;5056659;28;20686;-58
2024/01/31 08:46:35;;;;;;;28.00;14.10;;;;;;;2.25;64.00;63153.88;5073099;28;20255;-58
2024/01/31 08:49:00;;;;;;;25.20;13.90;;;;;;;2.58;64.13;63187.22;5073186;28;20271;-58
2024/01/31 08:51:26;;;;;;;27.47;13.63;;;;;;;3.64;59.21;63301.78;5073043;28;20180;-57
2024/01/31 08:53:52;;;;;;;29.53;14.40;;;;;;;4.22;57.30;63364.31;5072640;28;20222;-58
2024/01/31 08:56:18;;;;;;;35.87;16.23;;;;;;;4.74;56.39;63423.34;5072963;28;20578;-60
2024/01/31 08:58:43;;;;;;;34.30;15.43;;;;;;;5.16;54.12;63462.97;5071570;28;20200;-60
2024/01/31 09:01:09;;;;;;;30.13;16.47;;;;;;;5.47;54.27;63501.72;5073341;28;20205;-57
2024/01/31 09:03:35;;;;;;;34.53;17.47;;;;;;;5.74;53.22;63526.09;5071944;28;20224;-59
2024/01/31 09:06:00;;;;;;;34.53;16.33;;;;;;;6.08;52.42;63565.13;5071845;28;20245;-59
2024/01/31 09:08:27;;;;;;;25.30;14.63;;;;;;;5.86;51.06;63542.25;5073017;28;20255;-60
2024/01/31 09:10:52;;;;;;;27.93;13.80;;;;;;;5.64;51.91;63518.25;5073060;28;20181;-57
2024/01/31 09:13:18;;;;;;;23.53;12.30;;;;;;;6.11;50.76;63566.44;5071551;28;20269;-57
2024/01/31 09:15:44;;;;;;;28.47;15.40;;;;;;;6.17;50.89;63574.94;5073096;28;20192;-61
2024/01/31 09:18:09;;;;;;;30.73;15.57;;;;;;;6.44;49.99;63604.91;5054799;28;20219;-56
2024/01/31 09:20:36;;;;;;;24.30;13.57;;;;;;;6.68;49.56;63628.56;5072638;28;20322;-61
2024/01/31 09:23:01;;;;;;;19.70;12.83;;;;;;;6.53;47.77;63614.72;5072630;28;20685;-58
2024/01/31 09:25:27;;;;;;;31.57;13.80;;;;;;;6.47;48.02;63610.13;5073002;28;20253;-59
2024/01/31 09:27:53;;;;;;;26.97;12.77;;;;;;;6.51;47.49;63615.03;5072392;28;20655;-57
2024/01/31 09:30:18;;;;;;;29.53;13.20;;;;;;;5.10;49.29;63460.03;5071506;28;20296;-59
2024/01/31 09:32:44;;;;;;;33.73;16.53;;;;;;;5.07;52.77;63453.72;5072401;28;20230;-61
2024/01/31 09:35:09;;;;;;;23.30;13.33;;;;;;;5.20;51.26;63469.81;5072825;28;20203;-56
2024/01/31 09:37:35;;;;;;;25.50;14.70;;;;;;;4.45;52.93;63389.31;5072484;28;20766;-57
2024/01/31 09:40:00;;;;;;;27.33;14.00;;;;;;;4.79;53.00;63423.78;5072310;28;20204;-62
2024/01/31 09:42:26;;;;;;;26.77;13.33;;;;;;;6.25;49.78;63584.19;5072038;28;20694;-57
2024/01/31 09:44:58;;;;;;;31.57;14.80;;;;;;;6.46;48.37;63604.03;5070701;28;20197;-60
2024/01/31 09:47:28;;;;;;;28.93;13.80;;;;;;;5.17;50.97;63466.56;5072132;28;20209;-59
2024/01/31 09:49:56;;;;;;;30.20;14.20;;;;;;;6.25;49.79;63581.69;5072442;28;20247;-58
2024/01/31 09:52:29;;;;;;;40.03;14.50;;;;;;;7.49;46.99;63718.84;5071671;28;20204;-62
2024/01/31 09:54:58;;;;;;;24.57;14.53;;;;;;;7.43;45.80;63714.81;5072229;28;20677;-60
2024/01/31 09:57:25;;;;;;;31.30;15.57;;;;;;;8.00;45.22;63770.94;5070505;28;20369;-60
2024/01/31 09:59:51;;;;;;;32.97;15.50;;;;;;;8.36;44.77;63812.75;5071110;28;20189;-61
2024/01/31 10:02:17;;;;;;;27.60;16.23;;;;;;;6.73;45.97;63635.97;5071158;28;20203;-56
2024/01/31 10:04:48;;;;;;;30.43;16.17;;;;;;;7.34;46.96;63701.94;5070504;28;20203;-61
2024/01/31 10:07:22;;;;;;;26.20;15.73;;;;;;;8.03;44.21;63779.75;5071598;28;20216;-55
2024/01/31 10:09:47;;;;;;;27.97;15.10;;;;;;;6.57;46.38;63619.06;5071804;28;20246;-60
2024/01/31 10:12:13;;;;;;;30.43;16.10;;;;;;;6.93;45.30;63657.25;5071603;28;20293;-59
2024/01/31 10:14:41;;;;;;;29.13;16.47;;;;;;;7.00;46.16;63664.84;5070387;28;20197;-60
2024/01/31 10:17:06;;;;;;;26.83;16.67;;;;;;;7.22;45.58;63688.84;5071598;28;20220;-59
2024/01/31 10:19:32;;;;;;;27.63;16.10;;;;;;;7.34;45.18;63702.50;5071892;28;20197;-60
2024/01/31 10:21:59;;;;;;;35.90;17.63;;;;;;;8.07;43.83;63779.09;5061167;22;20240;-59
2024/01/31 10:24:24;;;;;;;32.80;18.47;;;;;;;8.65;43.22;63843.88;5033514;28;20584;-58
2024/01/31 10:26:50;;;;;;;32.73;17.20;;;;;;;9.49;41.44;63933.19;5051307;28;20224;-58
2024/01/31 10:29:15;;;;;;;33.17;17.47;;;;;;;9.72;41.42;63958.31;5033745;28;20315;-60
2024/01/31 10:31:44;;;;;;;33.47;18.07;;;;;;;9.88;40.77;63973.28;5032564;28;20581;-56
2024/01/31 10:34:10;;;;;;;30.63;17.93;;;;;;;7.81;42.07;63752.69;5049151;28;20250;-54
2024/01/31 10:36:36;;;;;;;31.47;17.67;;;;;;;7.80;43.71;63749.63;5033421;28;20238;-57
2024/01/31 10:39:03;;;;;;;34.80;17.47;;;;;;;8.37;41.79;63813.84;5051387;28;20272;-59
2024/01/31 10:41:29;;;;;;;44.90;19.53;;;;;;;9.09;40.78;63889.47;5051243;28;20603;-59
2024/01/31 10:43:58;;;;;;;36.93;17.80;;;;;;;10.07;39.22;63998.56;5033268;28;20209;-61
2024/01/31 10:46:23;;;;;;;28.27;17.17;;;;;;;10.57;39.19;64050.22;5033243;28;20263;-60
2024/01/31 10:48:49;;;;;;;34.80;19.63;;;;;;;10.34;39.24;64025.06;5033385;28;20685;-59
2024/01/31 10:51:16;;;;;;;38.27;20.57;;;;;;;9.51;39.96;63937.31;5033542;28;20197;-60
2024/01/31 10:53:42;;;;;;;32.70;18.37;;;;;;;10.37;39.39;64028.34;5091625;22;20240;-56
2024/01/31 10:56:10;;;;;;;45.87;22.07;;;;;;;10.91;38.79;64088.00;5091443;28;20196;-59
2024/01/31 10:58:36;;;;;;;47.10;21.70;;;;;;;10.77;38.86;64074.66;5091318;28;20269;-58
2024/01/31 11:01:03;;;;;;;37.10;20.13;;;;;;;10.80;39.36;64077.94;5091326;28;20184;-56
2024/01/31 11:03:30;;;;;;;40.00;20.50;;;;;;;10.72;38.59;64069.19;5089930;28;20204;-57
2024/01/31 11:05:56;;;;;;;31.30;18.43;;;;;;;10.72;38.15;64066.66;5073025;28;20196;-64
2024/01/31 11:08:26;;;;;;;31.90;17.87;;;;;;;10.23;38.82;64013.59;5091309;28;20219;-62
2024/01/31 11:10:53;;;;;;;30.53;18.13;;;;;;;10.67;38.86;64061.19;5090918;28;20180;-61
2024/01/31 11:13:19;;;;;;;35.00;18.87;;;;;;;10.19;37.44;64013.69;5090924;28;20214;-57
2024/01/31 11:15:45;;;;;;;29.27;17.07;;;;;;;10.39;39.54;64036.13;5073153;28;20215;-59
2024/01/31 11:18:14;;;;;;;35.97;17.70;;;;;;;10.85;38.94;64080.88;5091046;28;20244;-57
2024/01/31 11:20:46;;;;;;;41.93;20.87;;;;;;;12.51;41.92;64264.78;5072950;28;20191;-59
2024/01/31 11:23:25;;;;;;;39.97;20.33;;;;;;;11.58;38.45;64160.84;5090629;28;20728;-58